Time;durP1;ratioP1;P1;durP2;ratioP2;P2;SDS_P1;SDS_P2;PMS_P1;PMS_P2;Temp;Humidity;BMP_temperature;BMP_pressure;BME280_temperature;BME280_humidity;BME280_pressure;Samples;Min_cycle;Max_cycle;Signal;HPM_P1;HPM_P2
2023/10/23 00:00:26;;;;;;;5.55;1.50;;;;;;;;;;5057435;28;20045;-79
2023/10/23 00:02:51;;;;;;;6.40;1.80;;;;;;;;;;5057436;28;20047;-79
2023/10/23 00:05:16;;;;;;;5.35;1.67;;;;;;;;;;5055203;28;20016;-78
2023/10/23 00:07:41;;;;;;;5.53;1.88;;;;;;;;;;5038702;28;20016;-78
2023/10/23 00:10:08;;;;;;;4.47;1.77;;;;;;;;;;5056673;28;20135;-78
2023/10/23 00:12:33;;;;;;;4.57;1.63;;;;;;;;;;5037468;28;20648;-79
2023/10/23 00:14:59;;;;;;;6.57;2.20;;;;;;;;;;5056736;28;20039;-78
2023/10/23 00:17:24;;;;;;;8.13;1.90;;;;;;;;;;5056796;28;20021;-77
2023/10/23 00:19:49;;;;;;;12.82;1.80;;;;;;;;;;5056139;28;20082;-78
2023/10/23 00:22:15;;;;;;;4.93;1.70;;;;;;;;;;5055992;28;20364;-79
2023/10/23 00:24:40;;;;;;;6.27;1.70;;;;;;;;;;5055966;28;20253;-79
2023/10/23 00:27:05;;;;;;;7.17;1.80;;;;;;;;;;5056239;28;20246;-80
2023/10/23 00:29:30;;;;;;;6.82;2.03;;;;;;;;;;5055756;28;20350;-79
2023/10/23 00:31:56;;;;;;;8.88;1.73;;;;;;;;;;5056887;28;20017;-80
2023/10/23 00:34:21;;;;;;;3.60;1.43;;;;;;;;;;5039511;28;20025;-78
2023/10/23 00:36:46;;;;;;;4.28;1.55;;;;;;;;;;5057577;28;20270;-78
2023/10/23 00:39:11;;;;;;;7.78;1.55;;;;;;;;;;5039865;28;20021;-79
2023/10/23 00:41:37;;;;;;;7.32;1.80;;;;;;;;;;5039988;28;20024;-80
2023/10/23 00:44:02;;;;;;;7.47;2.10;;;;;;;;;;5057240;28;20025;-80
2023/10/23 00:46:29;;;;;;;4.82;1.50;;;;;;;;;;5041426;28;20024;-77
2023/10/23 00:48:55;;;;;;;5.88;1.40;;;;;;;;;;5042334;28;20024;-78
2023/10/23 00:51:21;;;;;;;5.40;1.52;;;;;;;;;;5059732;28;20073;-77
2023/10/23 00:53:46;;;;;;;6.18;1.50;;;;;;;;;;5058797;28;20437;-79
2023/10/23 00:56:12;;;;;;;5.57;1.95;;;;;;;;;;5058962;28;20040;-78
2023/10/23 00:58:40;;;;;;;6.47;2.08;;;;;;;;;;5059659;28;20103;-78
2023/10/23 01:01:06;;;;;;;6.38;1.85;;;;;;;;;;5058719;28;20467;-79
2023/10/23 01:03:32;;;;;;;5.35;1.60;;;;;;;;;;5040953;28;20031;-78
2023/10/23 01:05:57;;;;;;;6.18;1.77;;;;;;;;;;5041161;28;20111;-78
2023/10/23 01:08:23;;;;;;;3.92;1.65;;;;;;;;;;5060007;28;20095;-77
2023/10/23 01:10:48;;;;;;;4.97;1.60;;;;;;;;;;5059238;28;20029;-78
2023/10/23 01:13:14;;;;;;;8.40;1.73;;;;;;;;;;5060172;28;20059;-78
2023/10/23 01:15:39;;;;;;;3.42;1.42;;;;;;;;;;5041190;28;20025;-78
2023/10/23 01:18:05;;;;;;;9.77;1.38;;;;;;;;;;5058483;28;20029;-80
2023/10/23 01:20:31;;;;;;;3.28;1.50;;;;;;;;;;5042266;28;20024;-80
2023/10/23 01:22:58;;;;;;;3.05;1.40;;;;;;;;;;5059371;28;20029;-80
2023/10/23 01:25:23;;;;;;;3.70;1.60;;;;;;;;;;5061216;28;20025;-80
2023/10/23 01:27:49;;;;;;;7.75;1.48;;;;;;;;;;5061819;28;20031;-80
2023/10/23 01:30:14;;;;;;;5.70;1.38;;;;;;;;;;5044043;28;20033;-79
2023/10/23 01:32:39;;;;;;;7.32;1.55;;;;;;;;;;5042616;28;20471;-79
2023/10/23 01:35:05;;;;;;;5.93;1.75;;;;;;;;;;5060175;28;20033;-78
2023/10/23 01:37:31;;;;;;;4.25;1.60;;;;;;;;;;5042344;28;20044;-79
2023/10/23 01:39:56;;;;;;;4.70;1.52;;;;;;;;;;5057824;28;20032;-79
2023/10/23 01:42:21;;;;;;;8.57;1.60;;;;;;;;;;5039380;28;20021;-80
2023/10/23 01:44:47;;;;;;;6.80;1.50;;;;;;;;;;5057124;28;20075;-79
2023/10/23 01:47:12;;;;;;;9.00;1.70;;;;;;;;;;5056662;28;20399;-80
2023/10/23 01:49:37;;;;;;;8.10;1.65;;;;;;;;;;5054188;28;20032;-78
2023/10/23 01:52:03;;;;;;;4.60;1.70;;;;;;;;;;5037852;28;20039;-79
2023/10/23 01:54:28;;;;;;;4.15;1.25;;;;;;;;;;5056381;28;20040;-81
2023/10/23 01:56:53;;;;;;;5.55;1.50;;;;;;;;;;5040020;28;20063;-81
2023/10/23 01:59:19;;;;;;;2.67;1.20;;;;;;;;;;5039792;28;20396;-79
2023/10/23 02:01:44;;;;;;;6.72;1.52;;;;;;;;;;5057022;28;20078;-81
2023/10/23 02:04:09;;;;;;;5.32;1.60;;;;;;;;;;5057097;28;20053;-81
2023/10/23 02:06:34;;;;;;;4.88;1.40;;;;;;;;;;5059280;28;20025;-80
2023/10/23 02:09:00;;;;;;;4.63;1.55;;;;;;;;;;5039321;28;20039;-80
2023/10/23 02:11:25;;;;;;;5.55;1.42;;;;;;;;;;5058147;28;20025;-78
2023/10/23 02:13:50;;;;;;;6.35;1.33;;;;;;;;;;5058530;28;20060;-79
2023/10/23 02:16:16;;;;;;;4.47;1.20;;;;;;;;;;5058064;28;20070;-79
2023/10/23 02:18:41;;;;;;;3.28;1.23;;;;;;;;;;5057757;28;20399;-80
2023/10/23 02:21:06;;;;;;;5.05;1.67;;;;;;;;;;5056846;28;20043;-79
2023/10/23 02:23:32;;;;;;;5.10;1.40;;;;;;;;;;5057344;28;20029;-80
2023/10/23 02:25:57;;;;;;;3.83;1.10;;;;;;;;;;5057141;28;20033;-81
2023/10/23 02:28:23;;;;;;;5.80;1.52;;;;;;;;;;5040221;28;20028;-81
2023/10/23 02:30:48;;;;;;;3.83;1.30;;;;;;;;;;5061038;28;20074;-80
2023/10/23 02:33:13;;;;;;;7.60;1.60;;;;;;;;;;5060608;28;20041;-80
2023/10/23 02:35:38;;;;;;;7.30;1.63;;;;;;;;;;5060599;28;20036;-80
2023/10/23 02:38:04;;;;;;;5.22;1.38;;;;;;;;;;5060669;28;20458;-79
2023/10/23 02:40:30;;;;;;;6.65;1.65;;;;;;;;;;5041748;28;20040;-80
2023/10/23 02:42:55;;;;;;;5.50;1.60;;;;;;;;;;5059390;28;20021;-80
2023/10/23 02:46:22;;;;;;;;;;;;;;;;;;;;;
2023/10/23 02:51:57;;;;;;;3.67;1.55;;;;;;;;;;5040121;28;20029;-79
2023/10/23 02:54:29;;;;;;;3.50;1.30;;;;;;;;;;5077322;28;20025;-80
2023/10/23 02:56:56;;;;;;;6.97;1.50;;;;;;;;;;5078882;28;20023;-81
2023/10/23 02:59:27;;;;;;;5.88;1.50;;;;;;;;;;5078199;28;20074;-79
2023/10/23 03:01:52;;;;;;;7.75;1.45;;;;;;;;;;5078859;28;20402;-80
2023/10/23 03:04:18;;;;;;;5.68;1.50;;;;;;;;;;5078196;28;20024;-80
2023/10/23 03:07:06;;;;;;;4.07;1.35;;;;;;;;;;5078558;28;20369;-79
2023/10/23 03:09:42;;;;;;;2.92;1.10;;;;;;;;;;5077316;28;20106;-80
2023/10/23 03:12:07;;;;;;;6.13;1.48;;;;;;;;;;5078465;28;20024;-78
2023/10/23 03:14:33;;;;;;;4.97;1.33;;;;;;;;;;5088195;28;20513;-78
2023/10/23 03:16:59;;;;;;;4.43;1.23;;;;;;;;;;5088406;28;20486;-79
2023/10/23 03:19:25;;;;;;;4.50;1.35;;;;;;;;;;5089642;28;20052;-79
2023/10/23 03:21:51;;;;;;;4.13;1.30;;;;;;;;;;5089701;28;20127;-79
2023/10/23 03:24:18;;;;;;;9.68;1.40;;;;;;;;;;5085116;28;20503;-79
2023/10/23 03:26:43;;;;;;;6.82;1.60;;;;;;;;;;5084258;28;20032;-78
2023/10/23 03:29:08;;;;;;;2.45;1.42;;;;;;;;;;5083775;28;20046;-79
2023/10/23 03:31:34;;;;;;;5.93;1.45;;;;;;;;;;5084680;28;20028;-79
2023/10/23 03:34:00;;;;;;;5.18;1.40;;;;;;;;;;5087836;28;20021;-79
2023/10/23 03:36:25;;;;;;;4.75;1.40;;;;;;;;;;5086950;28;20027;-79
2023/10/23 03:38:50;;;;;;;5.72;1.20;;;;;;;;;;5085054;28;20506;-77
2023/10/23 03:41:16;;;;;;;2.88;1.15;;;;;;;;;;5083300;28;20024;-78
2023/10/23 03:43:41;;;;;;;4.17;1.20;;;;;;;;;;5086755;28;20020;-78
2023/10/23 03:46:06;;;;;;;5.68;1.45;;;;;;;;;;5082255;28;20257;-77
2023/10/23 03:48:35;;;;;;;4.60;1.42;;;;;;;;;;5067712;28;20158;-78
2023/10/23 03:51:02;;;;;;;6.15;1.60;;;;;;;;;;5081999;28;20032;-77
2023/10/23 03:53:28;;;;;;;5.80;1.27;;;;;;;;;;5077386;28;20107;-78
2023/10/23 03:55:53;;;;;;;9.95;1.83;;;;;;;;;;5083510;28;20040;-78
2023/10/23 03:58:21;;;;;;;5.95;1.48;;;;;;;;;;5080991;28;20031;-78
2023/10/23 04:00:51;;;;;;;7.80;1.67;;;;;;;;;;5083650;28;20086;-79
2023/10/23 04:03:16;;;;;;;7.57;1.20;;;;;;;;;;5084503;28;20028;-79
2023/10/23 04:05:42;;;;;;;4.25;1.27;;;;;;;;;;5082456;28;20058;-78
2023/10/23 04:08:07;;;;;;;5.72;1.30;;;;;;;;;;5077536;28;20560;-78
2023/10/23 04:10:32;;;;;;;4.80;1.27;;;;;;;;;;5076681;28;20025;-80
2023/10/23 04:12:58;;;;;;;3.65;1.45;;;;;;;;;;5078423;28;20100;-78
2023/10/23 04:15:26;;;;;;;7.83;1.53;;;;;;;;;;5076304;28;20101;-79
2023/10/23 04:17:52;;;;;;;7.22;1.50;;;;;;;;;;5076110;28;20273;-80
2023/10/23 04:20:17;;;;;;;8.27;2.28;;;;;;;;;;5075887;28;20568;-78
2023/10/23 04:22:43;;;;;;;4.72;1.33;;;;;;;;;;5074122;28;20028;-79
2023/10/23 04:25:09;;;;;;;9.73;1.50;;;;;;;;;;5074839;28;20031;-79
2023/10/23 04:27:34;;;;;;;6.82;1.40;;;;;;;;;;5075595;28;20415;-79
2023/10/23 04:29:59;;;;;;;7.00;1.50;;;;;;;;;;5075951;28;20028;-79
2023/10/23 04:32:25;;;;;;;5.15;1.30;;;;;;;;;;5074476;28;20021;-79
2023/10/23 04:34:51;;;;;;;2.60;1.40;;;;;;;;;;5076628;28;20031;-79
2023/10/23 04:37:16;;;;;;;8.85;1.50;;;;;;;;;;5075679;28;20017;-77
2023/10/23 04:39:41;;;;;;;5.10;1.35;;;;;;;;;;5077957;28;20434;-80
2023/10/23 04:42:06;;;;;;;9.95;1.73;;;;;;;;;;5074738;28;20025;-78
2023/10/23 04:44:32;;;;;;;6.10;1.30;;;;;;;;;;5075516;28;20028;-78
2023/10/23 04:46:57;;;;;;;7.25;1.27;;;;;;;;;;5074157;28;20479;-79
2023/10/23 04:49:23;;;;;;;3.90;1.20;;;;;;;;;;5074914;28;20032;-78
2023/10/23 04:51:48;;;;;;;3.60;1.38;;;;;;;;;;5076385;28;20450;-78
2023/10/23 04:54:17;;;;;;;5.70;1.67;;;;;;;;;;5076536;28;20036;-79
2023/10/23 04:56:42;;;;;;;6.57;1.30;;;;;;;;;;5075943;28;20088;-78
2023/10/23 04:59:08;;;;;;;6.63;1.30;;;;;;;;;;5075333;28;20048;-81
2023/10/23 05:01:34;;;;;;;5.85;1.50;;;;;;;;;;5075197;28;20509;-79
2023/10/23 05:04:02;;;;;;;4.30;1.55;;;;;;;;;;5076048;28;20363;-79
2023/10/23 05:06:27;;;;;;;7.38;1.67;;;;;;;;;;5076932;28;20044;-78
2023/10/23 05:08:53;;;;;;;7.32;1.63;;;;;;;;;;5077913;28;20032;-80
2023/10/23 05:11:18;;;;;;;4.93;1.52;;;;;;;;;;5075903;28;20468;-78
2023/10/23 05:13:46;;;;;;;4.30;1.30;;;;;;;;;;5077152;28;20028;-78
2023/10/23 05:16:12;;;;;;;5.32;1.65;;;;;;;;;;5076668;28;20022;-80
2023/10/23 05:18:38;;;;;;;6.53;1.38;;;;;;;;;;5077371;28;20070;-80
2023/10/23 05:21:12;;;;;;;4.55;1.98;;;;;;;;;;5075940;28;20024;-80
2023/10/23 05:23:41;;;;;;;7.65;1.77;;;;;;;;;;5077712;28;20038;-78
2023/10/23 05:26:08;;;;;;;3.33;1.30;;;;;;;;;;5078086;28;20039;-79
2023/10/23 05:28:33;;;;;;;5.63;1.60;;;;;;;;;;5078415;28;20427;-80
2023/10/23 05:30:58;;;;;;;6.18;1.35;;;;;;;;;;5078696;28;20024;-79
2023/10/23 05:33:24;;;;;;;4.32;1.67;;;;;;;;;;5078180;28;20600;-79
2023/10/23 05:35:49;;;;;;;4.65;1.60;;;;;;;;;;5078933;28;20021;-79
2023/10/23 05:38:18;;;;;;;5.82;1.60;;;;;;;;;;5080183;28;20043;-80
2023/10/23 05:40:43;;;;;;;6.35;1.63;;;;;;;;;;5080568;28;20406;-80
2023/10/23 05:43:08;;;;;;;5.45;1.42;;;;;;;;;;5080792;28;20107;-78
2023/10/23 05:45:36;;;;;;;5.95;2.30;;;;;;;;;;5080404;28;20089;-79
2023/10/23 05:48:01;;;;;;;4.15;1.90;;;;;;;;;;5077260;28;20088;-79
2023/10/23 05:50:26;;;;;;;5.03;1.60;;;;;;;;;;5076869;28;20391;-77
2023/10/23 05:52:51;;;;;;;4.22;1.50;;;;;;;;;;5077381;28;20272;-80
2023/10/23 05:55:20;;;;;;;3.23;1.53;;;;;;;;;;5077362;28;20021;-79
2023/10/23 05:57:46;;;;;;;5.85;1.60;;;;;;;;;;5077228;28;20273;-80
2023/10/23 06:00:12;;;;;;;5.45;1.73;;;;;;;;;;5077035;28;20031;-79
2023/10/23 06:02:37;;;;;;;9.63;1.60;;;;;;;;;;5077915;28;20487;-79
2023/10/23 06:05:03;;;;;;;7.88;1.63;;;;;;;;;;5081506;28;20063;-80
2023/10/23 06:07:32;;;;;;;6.25;1.70;;;;;;;;;;5081144;28;20016;-80
2023/10/23 06:09:58;;;;;;;7.60;1.40;;;;;;;;;;5082590;28;20028;-79
2023/10/23 06:12:23;;;;;;;7.70;1.80;;;;;;;;;;5080754;28;20028;-77
2023/10/23 06:14:49;;;;;;;4.00;1.40;;;;;;;;;;5082159;28;20530;-79
2023/10/23 06:17:14;;;;;;;8.13;1.70;;;;;;;;;;5082160;28;20710;-78
2023/10/23 06:19:40;;;;;;;5.90;1.97;;;;;;;;;;5079985;28;20025;-79
2023/10/23 06:22:05;;;;;;;6.20;1.60;;;;;;;;;;5078035;28;20954;-79
2023/10/23 06:24:30;;;;;;;5.47;1.70;;;;;;;;;;5081111;28;20283;-80
2023/10/23 06:26:56;;;;;;;6.57;1.50;;;;;;;;;;5081044;28;20027;-80
2023/10/23 06:29:21;;;;;;;6.80;1.58;;;;;;;;;;5084071;28;20023;-79
2023/10/23 06:31:46;;;;;;;5.63;2.28;;;;;;;;;;5082069;28;20078;-80
2023/10/23 06:34:11;;;;;;;8.82;2.08;;;;;;;;;;5080108;28;20024;-80
2023/10/23 06:36:41;;;;;;;3.90;1.50;;;;;;;;;;5081922;28;20062;-80
2023/10/23 06:39:07;;;;;;;5.97;2.03;;;;;;;;;;5080379;28;20028;-80
2023/10/23 06:41:32;;;;;;;9.60;2.28;;;;;;;;;;5080027;28;20031;-78
2023/10/23 06:43:57;;;;;;;9.30;1.80;;;;;;;;;;5078942;28;20028;-79
2023/10/23 06:46:23;;;;;;;6.82;1.60;;;;;;;;;;5078918;28;20114;-76
2023/10/23 06:48:48;;;;;;;7.65;1.60;;;;;;;;;;5079909;28;20016;-78
2023/10/23 06:51:13;;;;;;;9.88;1.98;;;;;;;;;;5081324;28;20025;-78
2023/10/23 06:53:39;;;;;;;5.70;1.70;;;;;;;;;;5080896;28;20086;-79
2023/10/23 06:56:07;;;;;;;7.85;1.80;;;;;;;;;;5080001;28;20044;-79
2023/10/23 06:58:32;;;;;;;11.98;2.30;;;;;;;;;;5079832;28;20032;-78
2023/10/23 07:01:05;;;;;;;12.30;1.80;;;;;;;;;;5080347;28;20028;-80
2023/10/23 07:03:34;;;;;;;5.78;1.60;;;;;;;;;;5078604;28;20550;-80
2023/10/23 07:06:04;;;;;;;7.93;1.65;;;;;;;;;;5078525;28;20037;-79
2023/10/23 07:08:29;;;;;;;9.18;2.05;;;;;;;;;;5079845;28;20023;-84
2023/10/23 07:10:54;;;;;;;6.05;1.65;;;;;;;;;;5080521;28;20040;-78
2023/10/23 07:13:19;;;;;;;5.67;1.40;;;;;;;;;;5078692;28;20025;-82
2023/10/23 07:15:45;;;;;;;7.18;2.08;;;;;;;;;;5076169;28;20257;-79
2023/10/23 07:18:10;;;;;;;5.90;1.53;;;;;;;;;;5078942;28;20109;-78
2023/10/23 07:20:36;;;;;;;6.78;1.67;;;;;;;;;;5079167;28;20257;-79
2023/10/23 07:23:01;;;;;;;6.63;1.70;;;;;;;;;;5079226;28;20505;-80
2023/10/23 07:25:29;;;;;;;10.57;1.77;;;;;;;;;;5078724;28;20020;-80
2023/10/23 07:27:54;;;;;;;9.85;1.80;;;;;;;;;;5077134;28;20025;-78
2023/10/23 07:30:22;;;;;;;7.35;1.27;;;;;;;;;;5077192;28;20027;-80
2023/10/23 07:32:48;;;;;;;5.15;1.38;;;;;;;;;;5078638;28;20560;-79
2023/10/23 07:35:13;;;;;;;5.43;1.60;;;;;;;;;;5078193;28;20063;-81
2023/10/23 07:37:38;;;;;;;3.47;1.38;;;;;;;;;;5079694;28;20489;-80
2023/10/23 07:40:07;;;;;;;6.17;1.50;;;;;;;;;;5079445;28;20028;-83
2023/10/23 07:42:32;;;;;;;6.90;1.35;;;;;;;;;;5079242;28;20751;-79
2023/10/23 07:45:00;;;;;;;9.23;1.55;;;;;;;;;;5086226;28;20036;-80
2023/10/23 07:47:28;;;;;;;6.80;1.50;;;;;;;;;;5087072;28;20017;-80
2023/10/23 07:49:53;;;;;;;5.63;1.48;;;;;;;;;;5086561;28;20028;-80
2023/10/23 07:52:18;;;;;;;5.32;1.58;;;;;;;;;;5081932;28;20035;-79
2023/10/23 07:54:43;;;;;;;8.25;1.67;;;;;;;;;;5079271;28;20080;-79
2023/10/23 07:57:10;;;;;;;6.47;1.60;;;;;;;;;;5079301;28;20467;-80
2023/10/23 07:59:35;;;;;;;9.00;1.73;;;;;;;;;;5077208;28;20031;-81
2023/10/23 08:02:01;;;;;;;6.05;1.60;;;;;;;;;;5077373;28;20483;-81
2023/10/23 08:04:28;;;;;;;3.55;1.30;;;;;;;;;;5077451;28;20016;-82
2023/10/23 08:06:53;;;;;;;3.53;1.58;;;;;;;;;;5075500;28;20028;-82
2023/10/23 08:09:22;;;;;;;5.88;1.40;;;;;;;;;;5075206;28;20024;-81
2023/10/23 08:11:50;;;;;;;6.95;1.60;;;;;;;;;;5075846;28;20390;-81
2023/10/23 08:14:15;;;;;;;5.13;1.38;;;;;;;;;;5078570;28;20021;-82
2023/10/23 08:16:43;;;;;;;5.10;1.40;;;;;;;;;;5081566;28;20046;-82
2023/10/23 08:19:10;;;;;;;5.28;1.58;;;;;;;;;;5081471;28;20032;-82
2023/10/23 08:21:36;;;;;;;5.57;1.48;;;;;;;;;;5080488;28;20096;-82
2023/10/23 08:24:03;;;;;;;6.75;1.58;;;;;;;;;;5078842;28;20446;-82
2023/10/23 08:26:33;;;;;;;5.55;1.50;;;;;;;;;;5078155;28;20029;-80
2023/10/23 08:28:59;;;;;;;3.83;1.40;;;;;;;;;;5077545;28;20021;-81
2023/10/23 08:31:24;;;;;;;6.55;1.48;;;;;;;;;;5074425;28;20031;-79
2023/10/23 08:33:50;;;;;;;7.90;1.73;;;;;;;;;;5075416;28;20063;-80
2023/10/23 08:36:17;;;;;;;11.02;1.85;;;;;;;;;;5075385;28;20092;-83
2023/10/23 08:38:43;;;;;;;6.25;1.60;;;;;;;;;;5076016;28;20021;-82
2023/10/23 08:41:13;;;;;;;7.07;1.40;;;;;;;;;;5074683;28;20051;-82
2023/10/23 08:43:39;;;;;;;6.00;1.30;;;;;;;;;;5075074;28;20025;-81
2023/10/23 08:46:05;;;;;;;6.45;1.52;;;;;;;;;;5076943;28;20035;-81
2023/10/23 08:48:33;;;;;;;7.82;1.25;;;;;;;;;;5076052;28;20444;-82
2023/10/23 08:50:59;;;;;;;8.20;1.52;;;;;;;;;;5075872;28;20388;-81
2023/10/23 08:53:33;;;;;;;4.57;1.48;;;;;;;;;;5075560;28;20051;-81
2023/10/23 08:56:03;;;;;;;6.22;1.50;;;;;;;;;;5075657;28;20024;-82
2023/10/23 08:58:32;;;;;;;4.38;1.00;;;;;;;;;;5073802;28;20025;-82
2023/10/23 09:00:58;;;;;;;7.72;1.40;;;;;;;;;;5076049;28;20531;-82
2023/10/23 09:03:25;;;;;;;6.75;1.30;;;;;;;;;;5075673;28;20032;-79
2023/10/23 09:05:51;;;;;;;2.22;1.08;;;;;;;;;;5075787;28;20099;-80
2023/10/23 09:08:18;;;;;;;2.30;0.88;;;;;;;;;;5074974;28;20534;-80
2023/10/23 09:11:08;;;;;;;3.03;1.02;;;;;;;;;;5077522;28;20047;-80
2023/10/23 09:13:37;;;;;;;2.53;0.90;;;;;;;;;;5077308;28;20024;-81
2023/10/23 09:16:05;;;;;;;3.53;0.82;;;;;;;;;;5077614;28;20021;-81
2023/10/23 09:18:33;;;;;;;5.55;1.08;;;;;;;;;;5078130;28;20040;-81
2023/10/23 09:20:59;;;;;;;3.92;1.10;;;;;;;;;;5080980;28;20025;-81
2023/10/23 09:23:25;;;;;;;5.07;1.08;;;;;;;;;;5079660;28;20062;-81
2023/10/23 09:25:57;;;;;;;3.55;1.00;;;;;;;;;;5077311;28;20219;-81
2023/10/23 09:28:26;;;;;;;1.83;0.80;;;;;;;;;;5079302;28;20045;-79
2023/10/23 09:30:51;;;;;;;1.23;0.75;;;;;;;;;;5078386;28;20413;-81
2023/10/23 09:33:18;;;;;;;3.67;0.90;;;;;;;;;;5079302;28;20020;-82
2023/10/23 09:35:43;;;;;;;3.05;0.90;;;;;;;;;;5080004;28;20024;-80
2023/10/23 09:38:12;;;;;;;2.58;0.85;;;;;;;;;;5080759;28;20029;-80
2023/10/23 09:40:37;;;;;;;4.78;0.90;;;;;;;;;;5082441;28;20048;-81
2023/10/23 09:43:03;;;;;;;1.55;0.75;;;;;;;;;;5084037;28;20102;-80
2023/10/23 09:45:31;;;;;;;0.98;0.80;;;;;;;;;;5084512;28;20549;-80
2023/10/23 09:47:59;;;;;;;3.63;0.90;;;;;;;;;;5083380;28;20032;-80
2023/10/23 09:50:26;;;;;;;2.67;1.00;;;;;;;;;;5082707;28;20124;-80
2023/10/23 09:52:56;;;;;;;2.30;1.00;;;;;;;;;;5082672;28;20031;-80
2023/10/23 09:55:26;;;;;;;2.67;0.70;;;;;;;;;;5084288;28;20025;-80
2023/10/23 09:57:53;;;;;;;4.70;0.90;;;;;;;;;;5083702;28;20097;-80
2023/10/23 10:00:19;;;;;;;3.20;0.93;;;;;;;;;;5083391;28;20028;-81
2023/10/23 10:02:48;;;;;;;2.42;0.90;;;;;;;;;;5083860;28;20112;-80
2023/10/23 10:05:21;;;;;;;2.53;0.88;;;;;;;;;;5083347;28;20028;-80
2023/10/23 10:08:02;;;;;;;2.92;0.70;;;;;;;;;;5082318;28;20387;-81
2023/10/23 10:10:29;;;;;;;3.35;0.90;;;;;;;;;;5083309;28;20020;-81
2023/10/23 10:12:57;;;;;;;2.08;0.85;;;;;;;;;;5082919;28;20028;-79
2023/10/23 10:15:23;;;;;;;4.85;0.80;;;;;;;;;;5080844;28;20394;-81
2023/10/23 10:17:49;;;;;;;1.98;0.85;;;;;;;;;;5083261;28;20016;-80
2023/10/23 10:20:18;;;;;;;3.08;0.90;;;;;;;;;;5079232;28;20042;-80
2023/10/23 10:22:44;;;;;;;1.85;0.60;;;;;;;;;;5078271;28;20027;-80
2023/10/23 10:38:12;;;;;;;1.95;0.70;;;;;;;;;;5037502;28;20045;-80
2023/10/23 10:41:16;;;;;;;4.40;0.90;;;;;;;;;;5039606;28;20480;-81
2023/10/23 11:03:10;;;;;;;3.38;0.85;;;;;;;;;;5011945;28;20048;-82
2023/10/23 11:23:44;;;;;;;;;;;;;;;;;;;;;
2023/10/23 11:26:32;;;;;;;4.00;0.80;;;;;;;;;;5229117;23;20063;-83
2023/10/23 13:09:27;;;;;;;2.25;0.63;;;;;;;;;;3329705;26;20080;-83
2023/10/23 13:11:53;;;;;;;3.03;0.77;;;;;;;;;;5059903;28;20041;-83
2023/10/23 13:14:18;;;;;;;1.65;0.63;;;;;;;;;;5058058;28;20028;-82
2023/10/23 13:16:43;;;;;;;3.38;0.60;;;;;;;;;;5040945;28;20447;-83
2023/10/23 13:19:09;;;;;;;5.22;0.70;;;;;;;;;;5040123;28;20476;-83
2023/10/23 13:21:34;;;;;;;1.15;0.65;;;;;;;;;;5038934;28;20021;-83
2023/10/23 13:24:00;;;;;;;4.63;0.65;;;;;;;;;;5038771;28;20025;-81
2023/10/23 13:26:25;;;;;;;1.95;0.70;;;;;;;;;;5040949;28;20489;-83
2023/10/23 13:28:50;;;;;;;1.08;0.52;;;;;;;;;;5041206;28;20033;-82
2023/10/23 13:31:19;;;;;;;1.65;0.68;;;;;;;;;;5040622;28;20052;-82
2023/10/23 13:33:45;;;;;;;1.58;0.70;;;;;;;;;;5042075;28;20029;-83
2023/10/23 13:36:16;;;;;;;1.90;0.82;;;;;;;;;;5041636;28;20071;-83
2023/10/23 13:38:41;;;;;;;2.92;1.10;;;;;;;;;;5042525;28;20029;-83
2023/10/23 13:41:06;;;;;;;1.27;0.80;;;;;;;;;;5041633;28;20029;-82
2023/10/23 13:43:35;;;;;;;3.40;0.80;;;;;;;;;;5040854;28;20021;-83
2023/10/23 13:46:00;;;;;;;2.38;0.90;;;;;;;;;;5040627;28;20056;-81
2023/10/23 13:48:28;;;;;;;1.70;0.70;;;;;;;;;;5041952;28;20025;-83
2023/10/23 13:50:53;;;;;;;1.08;0.60;;;;;;;;;;5042752;28;20021;-84
2023/10/23 13:53:22;;;;;;;3.55;0.70;;;;;;;;;;5041657;28;20503;-82
2023/10/23 13:55:48;;;;;;;1.92;0.70;;;;;;;;;;5040901;28;20025;-83
2023/10/23 13:58:14;;;;;;;2.33;0.80;;;;;;;;;;5040616;28;20535;-80
2023/10/23 14:00:39;;;;;;;2.13;0.73;;;;;;;;;;5035241;28;20026;-81
2023/10/23 14:03:05;;;;;;;1.50;0.73;;;;;;;;;;5035025;28;20504;-81
2023/10/23 14:05:32;;;;;;;1.65;0.80;;;;;;;;;;5036207;28;20029;-82
2023/10/23 14:08:03;;;;;;;3.13;0.63;;;;;;;;;;5036552;28;20021;-81
2023/10/23 14:10:29;;;;;;;2.75;0.75;;;;;;;;;;5034765;28;20029;-82
2023/10/23 14:12:54;;;;;;;1.77;0.88;;;;;;;;;;5034808;28;20545;-81
2023/10/23 14:20:29;;;;;;;2.20;0.80;;;;;;;;;;5100201;22;20087;-79
2023/10/23 14:22:58;;;;;;;6.97;1.30;;;;;;;;;;5056004;28;20403;-81
2023/10/23 14:25:23;;;;;;;2.20;0.80;;;;;;;;;;5058200;28;20021;-81
2023/10/23 14:27:51;;;;;;;3.90;1.10;;;;;;;;;;5059906;28;20024;-81
2023/10/23 14:30:16;;;;;;;3.20;1.20;;;;;;;;;;5041855;28;20289;-83
2023/10/23 14:32:42;;;;;;;3.97;1.10;;;;;;;;;;5041738;28;20021;-83
2023/10/23 14:35:07;;;;;;;2.78;1.27;;;;;;;;;;5059787;28;20354;-82
2023/10/23 14:37:33;;;;;;;2.78;1.25;;;;;;;;;;5059884;28;20029;-81
2023/10/23 14:39:58;;;;;;;3.28;1.33;;;;;;;;;;5059226;28;20029;-81
2023/10/23 14:42:23;;;;;;;6.07;1.60;;;;;;;;;;5041330;28;20045;-79
2023/10/23 14:44:49;;;;;;;3.28;1.50;;;;;;;;;;5058820;28;20266;-81
2023/10/23 14:47:14;;;;;;;2.75;1.35;;;;;;;;;;5059108;28;20030;-80
2023/10/23 14:49:39;;;;;;;3.58;1.42;;;;;;;;;;5059203;28;20040;-80
2023/10/23 14:52:05;;;;;;;2.90;1.50;;;;;;;;;;5059528;28;20025;-81
2023/10/23 14:54:30;;;;;;;4.85;1.70;;;;;;;;;;5059433;28;20061;-82
2023/10/23 14:56:55;;;;;;;17.75;2.45;;;;;;;;;;5041481;28;20020;-82
2023/10/23 14:59:21;;;;;;;3.75;1.52;;;;;;;;;;5041306;28;20371;-82
2023/10/23 15:01:47;;;;;;;4.15;1.58;;;;;;;;;;5059678;28;20050;-81
2023/10/23 15:04:13;;;;;;;4.53;1.65;;;;;;;;;;5058944;28;20025;-82
2023/10/23 15:06:38;;;;;;;3.40;1.77;;;;;;;;;;5040729;28;20029;-81
2023/10/23 15:09:06;;;;;;;7.97;1.90;;;;;;;;;;5040307;28;20388;-79
2023/10/23 15:11:32;;;;;;;7.65;2.13;;;;;;;;;;5058194;28;20475;-83
2023/10/23 15:13:57;;;;;;;6.53;2.08;;;;;;;;;;5058386;28;20082;-81
2023/10/23 15:16:22;;;;;;;4.55;1.67;;;;;;;;;;5040499;28;20021;-82
2023/10/23 15:18:49;;;;;;;5.80;2.30;;;;;;;;;;5040459;28;20368;-80
2023/10/23 15:21:14;;;;;;;4.38;1.77;;;;;;;;;;5040629;28;20521;-81
2023/10/23 15:23:40;;;;;;;7.90;1.95;;;;;;;;;;5059379;28;20028;-81
2023/10/23 15:26:05;;;;;;;4.68;1.85;;;;;;;;;;5040909;28;20021;-81
2023/10/23 15:28:32;;;;;;;8.02;1.60;;;;;;;;;;5040670;28;20048;-80
2023/10/23 15:31:02;;;;;;;4.63;1.60;;;;;;;;;;5039672;28;20032;-81
2023/10/23 15:33:28;;;;;;;5.45;1.60;;;;;;;;;;5057574;28;20040;-83
2023/10/23 15:36:00;;;;;;;20.33;2.60;;;;;;;;;;5056112;28;20052;-82
2023/10/23 15:38:30;;;;;;;5.93;2.10;;;;;;;;;;5039308;28;20032;-82
2023/10/23 15:41:10;;;;;;;7.00;1.95;;;;;;;;;;5040522;28;20044;-82
2023/10/23 15:43:39;;;;;;;5.00;2.08;;;;;;;;;;5044705;28;20039;-81
2023/10/23 15:46:10;;;;;;;7.38;1.75;;;;;;;;;;5062293;28;20592;-81
2023/10/23 15:48:35;;;;;;;5.45;2.10;;;;;;;;;;5044828;28;20506;-81
2023/10/23 15:51:01;;;;;;;8.57;1.90;;;;;;;;;;5060745;28;20033;-79
2023/10/23 15:53:26;;;;;;;5.43;1.80;;;;;;;;;;5060748;28;20017;-79
2023/10/23 15:55:53;;;;;;;9.75;2.17;;;;;;;;;;5061142;28;20104;-80
2023/10/23 15:58:18;;;;;;;4.93;1.98;;;;;;;;;;5062042;28;20163;-80
2023/10/23 16:00:46;;;;;;;7.57;2.38;;;;;;;;;;5062318;28;20025;-81
2023/10/23 16:03:11;;;;;;;2.90;1.83;;;;;;;;;;5043270;28;20437;-80
2023/10/23 16:05:38;;;;;;;5.50;1.85;;;;;;;;;;5060128;28;20025;-80
2023/10/23 16:08:04;;;;;;;4.50;2.00;;;;;;;;;;5060662;28;20017;-81
2023/10/23 16:10:29;;;;;;;4.93;2.10;;;;;;;;;;5059655;28;20036;-83
2023/10/23 16:12:55;;;;;;;5.78;2.15;;;;;;;;;;5060540;28;20032;-83
2023/10/23 16:15:20;;;;;;;8.63;2.63;;;;;;;;;;5041013;28;20527;-82
2023/10/23 16:17:46;;;;;;;6.45;3.55;;;;;;;;;;5043694;28;20445;-82
2023/10/23 16:20:12;;;;;;;5.88;3.55;;;;;;;;;;5044228;28;20475;-83
2023/10/23 16:22:39;;;;;;;8.07;4.20;;;;;;;;;;5043813;28;20029;-81
2023/10/23 16:25:07;;;;;;;8.57;3.63;;;;;;;;;;5061318;28;20044;-81
2023/10/23 16:27:33;;;;;;;9.15;3.63;;;;;;;;;;5043212;28;20027;-82
2023/10/23 16:30:09;;;;;;;11.52;3.47;;;;;;;;;;5042910;28;20474;-81
2023/10/23 16:32:35;;;;;;;5.07;2.45;;;;;;;;;;5042353;28;20029;-83
2023/10/23 16:35:00;;;;;;;8.70;3.00;;;;;;;;;;5057956;28;20028;-82
2023/10/23 16:37:28;;;;;;;10.15;4.10;;;;;;;;;;5057474;28;20025;-83
2023/10/23 16:39:55;;;;;;;5.40;2.50;;;;;;;;;;5058134;28;20021;-80
2023/10/23 16:42:20;;;;;;;7.65;2.55;;;;;;;;;;5039604;28;20480;-80
2023/10/23 16:44:46;;;;;;;7.82;3.72;;;;;;;;;;5057394;28;20037;-81
2023/10/23 16:47:12;;;;;;;10.38;3.88;;;;;;;;;;5057165;28;20070;-81
2023/10/23 16:49:47;;;;;;;8.68;4.65;;;;;;;;;;5057178;28;20025;-81
2023/10/23 16:52:14;;;;;;;11.73;5.18;;;;;;;;;;5057024;28;20087;-81
2023/10/23 16:54:39;;;;;;;13.20;4.60;;;;;;;;;;5056557;28;20027;-81
2023/10/23 16:57:05;;;;;;;11.32;5.40;;;;;;;;;;5056892;28;20021;-81
2023/10/23 16:59:30;;;;;;;9.85;5.15;;;;;;;;;;5055913;28;20035;-81
2023/10/23 17:01:55;;;;;;;9.93;4.77;;;;;;;;;;5038708;28;20119;-81
2023/10/23 17:04:22;;;;;;;10.30;4.83;;;;;;;;;;5056756;28;20261;-81
2023/10/23 17:06:47;;;;;;;11.07;4.50;;;;;;;;;;5039571;28;20258;-82
2023/10/23 17:09:12;;;;;;;9.02;4.60;;;;;;;;;;5038945;28;20028;-81
2023/10/23 17:11:38;;;;;;;12.65;4.18;;;;;;;;;;5056838;28;20056;-83
2023/10/23 17:14:03;;;;;;;9.25;2.97;;;;;;;;;;5056737;28;20095;-80
2023/10/23 17:16:28;;;;;;;9.77;3.70;;;;;;;;;;5056375;28;20036;-82
2023/10/23 17:18:54;;;;;;;8.23;3.67;;;;;;;;;;5037038;28;20292;-82